Time,TemperatureF,DewpointF,PressureIn,WindDirection,WindDirectionDegrees,WindSpeedMPH,WindSpeedGustMPH,Humidity,HourlyPrecipIn,Conditions,Clouds,dailyrainin,SoftwareType,DateUTC
2013-11-17 00:13:00,71.0,69.0,29.67,SW,221,4.0,11.0,94,0.00,,,0.00,,2013-11-17 06:13:00,
2013-11-17 00:23:00,71.0,69.0,29.67,SW,221,4.0,11.0,94,0.00,,,0.00,,2013-11-17 06:23:00,
2013-11-17 00:32:00,71.0,69.0,29.67,SW,221,4.0,11.0,94,0.00,,,0.00,,2013-11-17 06:32:00,
2013-11-17 01:22:00,71.0,69.0,29.66,SW,225,3.0,10.0,95,0.00,,,0.00,,2013-11-17 07:22:00,
2013-11-17 01:42:00,71.0,69.0,29.67,South,173,3.0,11.0,95,0.00,,,0.00,,2013-11-17 07:42:00,
2013-11-17 01:53:00,71.0,69.0,29.67,South,173,3.0,11.0,95,0.00,,,0.00,,2013-11-17 07:53:00,
2013-11-17 02:02:00,71.0,69.0,29.67,South,173,3.0,11.0,95,0.00,,,0.00,,2013-11-17 08:02:00,
2013-11-17 02:12:00,71.0,69.0,29.67,South,173,3.0,11.0,95,0.00,,,0.00,,2013-11-17 08:12:00,
2013-11-17 02:22:00,71.0,69.0,29.67,WSW,238,3.0,10.0,95,0.00,,,0.00,,2013-11-17 08:22:00,
2013-11-17 02:42:00,71.0,69.0,29.67,SW,224,2.0,8.0,95,0.00,,,0.00,,2013-11-17 08:42:00,
2013-11-17 02:52:00,71.0,69.0,29.67,SW,224,2.0,8.0,95,0.00,,,0.00,,2013-11-17 08:52:00,
2013-11-17 03:22:00,71.0,69.0,29.67,South,188,0.0,4.0,95,0.00,,,0.00,,2013-11-17 09:22:00,
2013-11-17 03:42:00,70.0,68.0,29.67,SW,221,1.0,5.0,95,0.00,,,0.00,,2013-11-17 09:42:00,
2013-11-17 03:53:00,71.0,70.0,29.67,WSW,238,1.0,6.0,96,0.00,,,0.00,,2013-11-17 09:53:00,
2013-11-17 04:13:00,71.0,69.0,29.67,WSW,255,1.0,9.0,95,0.00,,,0.00,,2013-11-17 10:13:00,
2013-11-17 04:23:00,71.0,69.0,29.67,West,259,2.0,6.0,95,0.00,,,0.00,,2013-11-17 10:23:00,
2013-11-17 04:42:00,71.0,69.0,29.67,WSW,255,2.0,6.0,95,0.00,,,0.00,,2013-11-17 10:42:00,
2013-11-17 04:53:00,70.0,68.0,29.67,SW,224,1.0,4.0,95,0.00,,,0.00,,2013-11-17 10:53:00,
2013-11-17 05:22:00,70.0,68.0,29.67,West,262,2.0,7.0,95,0.00,,,0.00,,2013-11-17 11:22:00,
2013-11-17 05:52:00,70.0,69.0,29.67,SW,234,1.0,6.0,96,0.00,,,0.00,,2013-11-17 11:52:00,
2013-11-17 06:22:00,70.0,69.0,29.68,WSW,238,2.0,7.0,97,0.00,,,0.00,,2013-11-17 12:22:00,
2013-11-17 06:42:00,70.0,69.0,29.68,SSW,213,1.0,5.0,97,0.00,,,0.00,,2013-11-17 12:42:00,
2013-11-17 06:52:00,70.0,69.0,29.69,South,186,2.0,5.0,96,0.00,,,0.00,,2013-11-17 12:52:00,
2013-11-17 07:22:00,69.0,68.0,29.70,SSW,210,1.0,5.0,97,0.00,,,0.00,,2013-11-17 13:22:00,
2013-11-17 07:42:00,70.0,69.0,29.70,SW,231,2.0,8.0,97,0.00,,,0.00,,2013-11-17 13:42:00,
2013-11-17 07:52:00,69.0,68.0,29.70,SW,224,1.0,5.0,96,0.00,,,0.00,,2013-11-17 13:52:00,
2013-11-17 08:22:00,70.0,69.0,29.71,WSW,249,2.0,7.0,96,0.00,,,0.00,,2013-11-17 14:22:00,
2013-11-17 08:42:00,71.0,69.0,29.72,NNW,327,1.0,6.0,95,0.00,,,0.00,,2013-11-17 14:42:00,
2013-11-17 08:52:00,71.0,69.0,29.74,NNW,333,1.0,6.0,94,0.00,,,0.00,,2013-11-17 14:52:00,
2013-11-17 09:11:00,71.0,69.0,29.75,SW,215,0.0,6.0,93,0.00,,,0.00,,2013-11-17 15:11:00,
2013-11-17 09:22:00,72.0,69.0,29.75,West,281,1.0,3.0,91,0.00,,,0.00,,2013-11-17 15:22:00,
2013-11-17 09:54:00,75.0,71.0,29.76,WNW,297,1.0,6.0,86,0.00,,,0.00,,2013-11-17 15:54:00,
2013-11-17 10:23:00,78.0,71.0,29.77,WSW,255,1.0,5.0,79,0.00,,,0.00,,2013-11-17 16:23:00,
2013-11-17 10:42:00,79.0,72.0,29.77,East,101,0.0,3.0,78,0.00,,,0.00,,2013-11-17 16:42:00,
2013-11-17 10:53:00,79.0,70.0,29.77,NNE,25,2.0,5.0,74,0.00,,,0.00,,2013-11-17 16:53:00,
2013-11-17 11:12:00,80.0,71.0,29.78,ESE,103,0.0,3.0,73,0.00,,,0.00,,2013-11-17 17:12:00,
2013-11-17 11:22:00,82.0,71.0,29.77,NNE,13,1.0,3.0,69,0.00,,,0.00,,2013-11-17 17:22:00,
2013-11-17 11:43:00,82.0,71.0,29.77,North,356,1.0,5.0,69,0.00,,,0.00,,2013-11-17 17:43:00,
2013-11-17 11:52:00,83.0,69.0,29.76,East,91,1.0,5.0,62,0.00,,,0.00,,2013-11-17 17:52:00,
2013-11-17 12:03:00,83.0,69.0,29.76,East,91,1.0,5.0,62,0.00,,,0.00,,2013-11-17 18:03:00,
2013-11-17 12:12:00,83.0,69.0,29.76,East,91,1.0,5.0,62,0.00,,,0.00,,2013-11-17 18:12:00,
2013-11-17 12:23:00,84.0,67.0,29.75,ESE,108,1.0,4.0,56,0.00,,,0.00,,2013-11-17 18:23:00,
2013-11-17 12:42:00,85.0,69.0,29.75,East,97,1.0,5.0,58,0.00,,,0.00,,2013-11-17 18:42:00,
2013-11-17 12:52:00,85.0,66.0,29.74,East,95,1.0,5.0,54,0.00,,,0.00,,2013-11-17 18:52:00,
2013-11-17 13:12:00,85.0,65.0,29.73,West,262,0.0,5.0,52,0.00,,,0.00,,2013-11-17 19:12:00,
2013-11-17 13:22:00,86.0,65.0,29.73,SE,137,0.0,3.0,50,0.00,,,0.00,,2013-11-17 19:22:00,
2013-11-17 13:52:00,86.0,60.0,29.72,ESE,108,1.0,4.0,42,0.00,,,0.00,,2013-11-17 19:52:00,
2013-11-17 14:22:00,86.0,56.0,29.72,East,95,1.0,3.0,36,0.00,,,0.00,,2013-11-17 20:22:00,
2013-11-17 14:43:00,86.0,58.0,29.72,ENE,63,1.0,4.0,39,0.00,,,0.00,,2013-11-17 20:43:00,
2013-11-17 14:52:00,86.0,58.0,29.72,NE,46,1.0,4.0,39,0.00,,,0.00,,2013-11-17 20:52:00,
2013-11-17 15:12:00,86.0,59.0,29.71,ENE,64,0.0,2.0,40,0.00,,,0.00,,2013-11-17 21:12:00,
2013-11-17 15:22:00,86.0,57.0,29.71,NE,51,2.0,6.0,38,0.00,,,0.00,,2013-11-17 21:22:00,
2013-11-17 15:44:00,85.0,58.0,29.71,ENE,67,1.0,4.0,40,0.00,,,0.00,,2013-11-17 21:44:00,
2013-11-17 15:55:00,85.0,58.0,29.71,ENE,61,1.0,4.0,40,0.00,,,0.00,,2013-11-17 21:55:00,
2013-11-17 16:14:00,84.0,58.0,29.72,NE,51,1.0,4.0,41,0.00,,,0.00,,2013-11-17 22:14:00,
2013-11-17 16:24:00,84.0,57.0,29.72,East,91,0.0,1.0,40,0.00,,,0.00,,2013-11-17 22:24:00,
2013-11-17 16:43:00,83.0,58.0,29.72,East,80,0.0,3.0,43,0.00,,,0.00,,2013-11-17 22:43:00,
2013-11-17 16:53:00,81.0,58.0,29.73,East,101,0.0,2.0,45,0.00,,,0.00,,2013-11-17 22:53:00,
2013-11-17 17:23:00,80.0,59.0,29.73,NNE,22,0.0,0.0,48,0.00,,,0.00,,2013-11-17 23:23:00,
2013-11-17 17:42:00,79.0,58.0,29.74,NNE,22,0.0,0.0,49,0.00,,,0.00,,2013-11-17 23:42:00,
2013-11-17 17:52:00,79.0,59.0,29.74,NNE,22,0.0,0.0,50,0.00,,,0.00,,2013-11-17 23:52:00,
2013-11-17 18:21:00,76.0,58.0,29.75,NNE,22,0.0,0.0,54,0.00,,,0.00,,2013-11-18 00:21:00,
2013-11-17 18:32:00,76.0,58.0,29.75,NNE,22,0.0,0.0,54,0.00,,,0.00,,2013-11-18 00:32:00,
2013-11-17 18:42:00,76.0,58.0,29.75,NNE,22,0.0,0.0,54,0.00,,,0.00,,2013-11-18 00:42:00,
2013-11-17 18:52:00,74.0,57.0,29.76,NNE,23,0.0,0.0,56,0.00,,,0.00,,2013-11-18 00:52:00,
2013-11-17 19:22:00,75.0,58.0,29.77,South,186,0.0,0.0,56,0.00,,,0.00,,2013-11-18 01:22:00,
2013-11-17 19:42:00,75.0,58.0,29.78,South,178,1.0,2.0,55,0.00,,,0.00,,2013-11-18 01:42:00,
2013-11-17 20:21:00,74.0,58.0,29.79,SW,232,2.0,5.0,57,0.00,,,0.00,,2013-11-18 02:21:00,
2013-11-17 20:52:00,71.0,62.0,29.80,WSW,240,2.0,4.0,73,0.00,,,0.00,,2013-11-18 02:52:00,
2013-11-17 21:22:00,70.0,64.0,29.81,SW,234,1.0,4.0,81,0.00,,,0.00,,2013-11-18 03:22:00,
2013-11-17 21:44:00,70.0,65.0,29.81,SW,235,1.0,3.0,84,0.00,,,0.00,,2013-11-18 03:44:00,
2013-11-17 21:54:00,70.0,65.0,29.81,SW,235,1.0,3.0,84,0.00,,,0.00,,2013-11-18 03:54:00,
2013-11-17 22:13:00,70.0,65.0,29.82,West,259,1.0,3.0,85,0.00,,,0.00,,2013-11-18 04:13:00,
2013-11-17 22:23:00,70.0,65.0,29.82,West,259,1.0,3.0,85,0.00,,,0.00,,2013-11-18 04:23:00,
2013-11-17 22:33:00,70.0,65.0,29.82,West,259,1.0,3.0,85,0.00,,,0.00,,2013-11-18 04:33:00,
2013-11-17 22:41:00,64.0,58.0,29.83,ENE,65,0.0,2.0,82,0.00,,,0.00,,2013-11-18 04:41:00,
2013-11-17 22:52:00,65.0,59.0,29.83,ESE,108,1.0,3.0,82,0.00,,,0.00,,2013-11-18 04:52:00,
2013-11-17 23:12:00,64.0,58.0,29.83,ENE,65,0.0,2.0,82,0.00,,,0.00,,2013-11-18 05:12:00,
2013-11-17 23:22:00,64.0,58.0,29.83,ENE,65,0.0,2.0,82,0.00,,,0.00,,2013-11-18 05:22:00,
2013-11-17 23:33:00,64.0,58.0,29.83,ENE,65,0.0,2.0,82,0.00,,,0.00,,2013-11-18 05:33:00,
2013-11-17 23:53:00,65.0,63.0,29.84,ENE,65,0.0,0.0,92,0.00,,,0.00,,2013-11-18 05:53:00,